Time;durP1;ratioP1;P1;durP2;ratioP2;P2;SDS_P1;SDS_P2;PMS_P1;PMS_P2;Temp;Humidity;BMP_temperature;BMP_pressure;BME280_temperature;BME280_humidity;BME280_pressure;Samples;Min_cycle;Max_cycle;Signal;HPM_P1;HPM_P2
2022/03/05 00:00:17;;;;;;;9.60;8.77;;;2.60;1.00;;;;;;6297760;28;20321;-56
2022/03/05 00:03:20;;;;;;;9.50;8.60;;;2.50;1.00;;;;;;6309333;28;20255;-55
2022/03/05 00:06:23;;;;;;;9.03;8.13;;;2.30;1.00;;;;;;6307665;28;20336;-57
2022/03/05 00:09:26;;;;;;;10.07;9.17;;;2.20;1.00;;;;;;6299845;28;20327;-55
2022/03/05 00:12:30;;;;;;;11.17;9.33;;;2.40;1.00;;;;;;6308438;28;20297;-56
2022/03/05 00:15:33;;;;;;;10.47;9.37;;;2.00;1.00;;;;;;6301652;28;20245;-55
2022/03/05 00:18:36;;;;;;;10.27;9.27;;;2.10;1.00;;;;;;6298955;28;20225;-55
2022/03/05 00:21:39;;;;;;;12.50;10.17;;;2.00;1.00;;;;;;6307410;28;20236;-57
2022/03/05 00:24:41;;;;;;;10.93;10.03;;;2.10;1.00;;;;;;6304230;28;20236;-56
2022/03/05 00:27:47;;;;;;;11.27;10.07;;;2.00;1.00;;;;;;6306892;28;20243;-56
2022/03/05 00:30:49;;;;;;;10.77;9.73;;;1.80;1.00;;;;;;6298169;28;20308;-57
2022/03/05 00:33:52;;;;;;;10.53;9.53;;;2.10;1.00;;;;;;6308045;28;20309;-56
2022/03/05 00:36:55;;;;;;;10.70;9.77;;;2.00;1.00;;;;;;6307070;28;20320;-57
2022/03/05 00:39:58;;;;;;;12.27;10.50;;;1.80;1.00;;;;;;6289065;28;20406;-56
2022/03/05 00:43:02;;;;;;;10.57;9.43;;;2.00;1.00;;;;;;6296014;28;20549;-57
2022/03/05 00:46:04;;;;;;;11.50;9.30;;;1.80;1.00;;;;;;6307548;28;20812;-56
2022/03/05 00:49:08;;;;;;;10.90;9.87;;;1.80;1.00;;;;;;6301936;28;20239;-57
2022/03/05 00:52:11;;;;;;;11.00;10.00;;;1.80;1.00;;;;;;6308179;28;20701;-55
2022/03/05 00:55:14;;;;;;;11.00;10.00;;;1.50;1.00;;;;;;6306475;28;20227;-55
2022/03/05 00:58:18;;;;;;;11.00;9.50;;;1.50;1.00;;;;;;6306394;28;20228;-54
2022/03/05 01:01:21;;;;;;;12.33;10.50;;;1.50;1.00;;;;;;6305958;28;20262;-56
2022/03/05 01:04:24;;;;;;;11.77;10.57;;;1.30;1.00;;;;;;6307264;28;20266;-56
2022/03/05 01:07:27;;;;;;;12.23;10.60;;;1.50;1.00;;;;;;6304676;28;20848;-56
2022/03/05 01:10:30;;;;;;;13.13;10.63;;;1.50;1.00;;;;;;6304658;28;20315;-55
2022/03/05 01:13:34;;;;;;;15.53;10.50;;;1.50;1.00;;;;;;6306469;28;20262;-56
2022/03/05 01:16:37;;;;;;;13.83;10.00;;;1.10;1.00;;;;;;6307676;28;20266;-55
2022/03/05 01:19:40;;;;;;;11.80;10.70;;;1.10;1.00;;;;;;6302723;28;20229;-57
2022/03/05 01:22:43;;;;;;;12.90;10.83;;;1.30;1.00;;;;;;6307784;28;20262;-56
2022/03/05 01:25:46;;;;;;;12.57;10.50;;;1.40;1.00;;;;;;6299710;28;20608;-55
2022/03/05 01:28:50;;;;;;;11.47;10.47;;;1.20;1.00;;;;;;6300337;28;20285;-56
2022/03/05 01:31:53;;;;;;;12.03;9.90;;;1.40;1.00;;;;;;6310620;28;20315;-57
2022/03/05 01:34:55;;;;;;;11.83;10.63;;;1.30;1.00;;;;;;6309604;28;20352;-55
2022/03/05 01:37:58;;;;;;;13.17;11.20;;;1.20;1.00;;;;;;6311160;28;20255;-57
2022/03/05 01:41:01;;;;;;;11.43;10.27;;;1.20;1.00;;;;;;6312145;28;20313;-57
2022/03/05 01:44:06;;;;;;;13.30;10.73;;;1.10;1.00;;;;;;6303687;28;20268;-56
2022/03/05 01:47:09;;;;;;;11.53;10.33;;;1.10;1.00;;;;;;6285842;28;20282;-57
2022/03/05 01:50:12;;;;;;;12.70;10.63;;;1.20;1.00;;;;;;6308984;28;20312;-56
2022/03/05 01:53:15;;;;;;;10.90;10.00;;;1.10;1.00;;;;;;6307019;28;20973;-55
2022/03/05 01:56:19;;;;;;;16.10;10.23;;;1.00;1.00;;;;;;6301525;28;20813;-57
2022/03/05 01:59:23;;;;;;;10.57;9.67;;;1.10;1.00;;;;;;6293807;28;20803;-55
2022/03/05 02:02:26;;;;;;;13.13;10.33;;;0.90;1.00;;;;;;6311824;28;20228;-55
2022/03/05 02:05:29;;;;;;;13.30;10.70;;;1.00;1.00;;;;;;6306874;28;20378;-55
2022/03/05 02:08:32;;;;;;;11.37;10.17;;;1.10;1.00;;;;;;6302127;28;20236;-56
2022/03/05 02:11:35;;;;;;;11.60;10.47;;;1.20;1.00;;;;;;6310541;28;20783;-55
2022/03/05 02:14:39;;;;;;;11.13;10.17;;;0.90;1.00;;;;;;6307487;28;20243;-55
2022/03/05 02:17:43;;;;;;;12.80;10.43;;;0.90;1.00;;;;;;6307669;28;20252;-54
2022/03/05 02:20:47;;;;;;;11.57;10.07;;;0.90;1.00;;;;;;6287677;28;20285;-56
2022/03/05 02:23:50;;;;;;;14.70;9.93;;;0.80;1.00;;;;;;6302935;28;20281;-56
2022/03/05 02:26:52;;;;;;;11.57;10.40;;;0.80;1.00;;;;;;6305780;28;20817;-56
2022/03/05 02:29:56;;;;;;;10.47;9.63;;;0.80;1.00;;;;;;6303867;28;20726;-55
2022/03/05 02:32:59;;;;;;;12.30;9.90;;;0.80;1.00;;;;;;6309235;28;20331;-56
2022/03/05 02:36:05;;;;;;;11.10;9.93;;;0.90;1.00;;;;;;6294533;28;20752;-55
2022/03/05 02:39:08;;;;;;;10.80;9.70;;;0.80;1.00;;;;;;6295341;28;20229;-55
2022/03/05 02:42:12;;;;;;;11.77;9.97;;;0.60;1.00;;;;;;6308789;28;20369;-56
2022/03/05 02:45:15;;;;;;;10.63;9.53;;;0.80;1.00;;;;;;6305650;28;20394;-56
2022/03/05 02:48:19;;;;;;;11.47;10.37;;;0.70;1.00;;;;;;6301256;28;20558;-55
2022/03/05 02:51:23;;;;;;;9.77;8.83;;;0.70;1.00;;;;;;6299489;28;20237;-55
2022/03/05 02:54:26;;;;;;;10.47;9.37;;;0.70;1.00;;;;;;6306958;28;20382;-54
2022/03/05 02:57:29;;;;;;;10.13;9.20;;;0.50;1.00;;;;;;6288179;28;20237;-55
2022/03/05 03:00:32;;;;;;;10.80;9.70;;;0.80;1.00;;;;;;6297006;28;20693;-56
2022/03/05 03:03:35;;;;;;;10.50;9.23;;;0.50;1.00;;;;;;6308760;28;20241;-56
2022/03/05 03:06:39;;;;;;;12.10;10.33;;;0.50;1.00;;;;;;6302670;28;20319;-56
2022/03/05 03:09:42;;;;;;;10.53;9.27;;;0.40;1.00;;;;;;6303972;28;20307;-56
2022/03/05 03:12:45;;;;;;;9.80;8.80;;;0.40;1.00;;;;;;6294604;28;20511;-56
2022/03/05 03:15:48;;;;;;;10.13;9.23;;;0.60;1.00;;;;;;6300804;28;20783;-56
2022/03/05 03:18:51;;;;;;;13.47;8.73;;;0.50;1.00;;;;;;6302301;28;20233;-56
2022/03/05 03:21:55;;;;;;;9.57;8.80;;;0.40;1.00;;;;;;6307637;28;20309;-56
2022/03/05 03:24:58;;;;;;;9.20;8.43;;;0.50;1.00;;;;;;6296483;28;20654;-57
2022/03/05 03:28:01;;;;;;;9.27;8.47;;;0.40;1.00;;;;;;6294485;28;20309;-56
2022/03/05 03:31:03;;;;;;;10.73;9.60;;;0.50;1.00;;;;;;6306379;28;20289;-56
2022/03/05 03:34:06;;;;;;;10.83;9.20;;;0.50;1.00;;;;;;6308254;28;20358;-56
2022/03/05 03:37:10;;;;;;;9.63;8.83;;;0.30;1.00;;;;;;6306224;28;20712;-55
2022/03/05 03:40:15;;;;;;;10.23;8.73;;;0.40;1.00;;;;;;6300177;28;20292;-57
2022/03/05 03:43:18;;;;;;;9.20;8.57;;;0.30;1.00;;;;;;6308461;28;20241;-56
2022/03/05 03:46:21;;;;;;;9.83;8.97;;;0.40;1.00;;;;;;6307785;28;20313;-56
2022/03/05 03:49:24;;;;;;;9.93;8.97;;;0.30;1.00;;;;;;6285243;28;20728;-55
2022/03/05 03:52:28;;;;;;;10.30;8.77;;;0.40;1.00;;;;;;6305637;28;20597;-56
2022/03/05 03:55:31;;;;;;;10.17;9.17;;;0.20;1.00;;;;;;6307269;28;20337;-55
2022/03/05 03:58:34;;;;;;;9.47;8.60;;;0.50;1.00;;;;;;6307327;28;20313;-56
2022/03/05 04:01:37;;;;;;;9.70;8.47;;;0.30;1.00;;;;;;6306749;28;20326;-57
2022/03/05 04:04:41;;;;;;;10.33;9.33;;;0.30;1.00;;;;;;6305267;28;20494;-55
2022/03/05 04:11:07;;;;;;;9.47;8.67;;;0.40;1.00;;;;;;6302719;28;20236;-57
2022/03/05 04:14:10;;;;;;;9.87;8.87;;;0.30;1.00;;;;;;6299825;28;20274;-56
2022/03/05 04:17:12;;;;;;;9.73;8.73;;;0.10;1.00;;;;;;6308040;28;20323;-55
2022/03/05 04:20:15;;;;;;;9.87;8.83;;;0.30;1.00;;;;;;6303968;28;20343;-57
2022/03/05 04:23:20;;;;;;;10.07;9.17;;;0.30;1.00;;;;;;6307869;28;20319;-55
2022/03/05 04:26:22;;;;;;;9.63;8.43;;;0.40;1.00;;;;;;6309327;28;20283;-55
2022/03/05 04:29:25;;;;;;;9.73;8.53;;;0.30;1.00;;;;;;6292840;28;20281;-56
2022/03/05 04:32:28;;;;;;;13.23;9.23;;;0.40;1.00;;;;;;6289619;28;20925;-57
2022/03/05 04:35:31;;;;;;;8.87;8.23;;;0.30;1.00;;;;;;6304226;28;20241;-56
2022/03/05 04:38:35;;;;;;;9.60;8.63;;;0.20;1.00;;;;;;6297294;28;20320;-55
2022/03/05 04:41:38;;;;;;;9.67;8.77;;;0.00;1.00;;;;;;6286883;28;20730;-56
2022/03/05 04:44:41;;;;;;;10.80;9.70;;;0.30;1.00;;;;;;6293801;28;20437;-57
2022/03/05 04:47:45;;;;;;;12.43;10.10;;;0.10;1.00;;;;;;6293817;28;20248;-55
2022/03/05 04:50:48;;;;;;;9.87;8.97;;;0.20;1.00;;;;;;6295205;28;20600;-56
2022/03/05 04:53:53;;;;;;;13.20;9.23;;;0.20;1.00;;;;;;6302223;28;20244;-55
2022/03/05 04:56:56;;;;;;;12.20;9.83;;;0.20;1.00;;;;;;6306086;28;20696;-57
2022/03/05 04:59:58;;;;;;;11.23;9.60;;;0.20;1.00;;;;;;6299018;28;20607;-55
2022/03/05 05:03:01;;;;;;;12.57;9.97;;;0.10;1.00;;;;;;6311744;28;20967;-55
2022/03/05 05:06:05;;;;;;;14.97;10.57;;;0.30;1.00;;;;;;6311025;28;20720;-55
2022/03/05 05:09:09;;;;;;;13.30;11.43;;;0.30;1.00;;;;;;6308151;28;20373;-57
2022/03/05 05:12:12;;;;;;;11.30;10.20;;;0.20;1.00;;;;;;6308680;28;20753;-57
2022/03/05 05:15:15;;;;;;;12.17;10.27;;;0.00;1.00;;;;;;6307327;28;20549;-56
2022/03/05 05:18:18;;;;;;;12.20;10.20;;;0.10;1.00;;;;;;6301923;28;20878;-57
2022/03/05 05:21:20;;;;;;;12.83;11.00;;;0.20;1.00;;;;;;6307441;28;20251;-56
2022/03/05 05:24:25;;;;;;;10.80;9.77;;;0.00;1.00;;;;;;6307035;28;20429;-55
2022/03/05 05:27:28;;;;;;;12.17;10.40;;;0.10;1.00;;;;;;6299919;28;20507;-55
2022/03/05 05:30:31;;;;;;;13.80;11.33;;;0.10;1.00;;;;;;6295601;28;20217;-56
2022/03/05 05:33:34;;;;;;;10.87;9.77;;;0.10;1.00;;;;;;6307559;28;20537;-56
2022/03/05 05:36:38;;;;;;;14.43;10.60;;;0.10;1.00;;;;;;6310091;28;20614;-57
2022/03/05 05:39:42;;;;;;;13.57;10.30;;;0.20;1.00;;;;;;6297271;28;20328;-56
2022/03/05 05:42:45;;;;;;;10.57;9.67;;;0.10;1.00;;;;;;6309792;28;20371;-57
2022/03/05 05:45:48;;;;;;;12.23;10.20;;;-0.10;1.00;;;;;;6305709;28;20284;-55
2022/03/05 05:48:51;;;;;;;11.43;10.33;;;0.00;1.00;;;;;;6300362;28;20392;-56
2022/03/05 05:51:54;;;;;;;10.87;9.77;;;-0.10;1.00;;;;;;6309519;28;20327;-57
2022/03/05 05:54:58;;;;;;;12.30;11.03;;;0.00;1.00;;;;;;6309539;28;20233;-55
2022/03/05 05:58:01;;;;;;;12.23;9.93;;;0.00;1.00;;;;;;6301586;28;20610;-57
2022/03/05 06:01:04;;;;;;;12.07;10.80;;;-0.10;1.00;;;;;;6304481;28;20229;-55
2022/03/05 06:04:07;;;;;;;12.53;10.97;;;0.10;1.00;;;;;;6307643;28;20279;-56
2022/03/05 06:07:10;;;;;;;13.63;11.30;;;0.00;1.00;;;;;;6303912;28;20691;-57
2022/03/05 06:10:14;;;;;;;16.23;11.47;;;-0.10;1.00;;;;;;6300679;28;20228;-57
2022/03/05 06:13:17;;;;;;;13.43;10.50;;;0.00;1.00;;;;;;6309742;28;20273;-56
2022/03/05 06:16:19;;;;;;;16.50;11.63;;;0.10;1.00;;;;;;6309979;28;20239;-56
2022/03/05 06:19:22;;;;;;;12.27;11.00;;;0.30;1.00;;;;;;6294127;28;20807;-57
2022/03/05 06:22:25;;;;;;;15.13;11.30;;;0.10;1.00;;;;;;6310208;28;20898;-56
2022/03/05 06:25:29;;;;;;;13.53;11.70;;;0.20;1.00;;;;;;6296716;28;20323;-57
2022/03/05 06:28:34;;;;;;;16.60;11.43;;;0.30;1.00;;;;;;6298851;28;20715;-57
2022/03/05 06:31:36;;;;;;;18.50;12.27;;;0.40;1.00;;;;;;6301638;28;20709;-55
2022/03/05 06:34:39;;;;;;;14.70;11.93;;;0.50;1.00;;;;;;6307922;28;20387;-56
2022/03/05 06:37:42;;;;;;;13.87;11.93;;;0.30;1.00;;;;;;6296958;28;20912;-56
2022/03/05 06:40:46;;;;;;;17.10;12.50;;;0.60;1.00;;;;;;6301516;28;20229;-57
2022/03/05 06:43:49;;;;;;;12.70;11.07;;;0.90;1.00;;;;;;6304492;28;20335;-55
2022/03/05 06:46:52;;;;;;;14.60;11.13;;;1.70;1.00;;;;;;6311741;28;20247;-58
2022/03/05 06:49:54;;;;;;;16.00;10.77;;;1.80;1.00;;;;;;6302589;28;20347;-56
2022/03/05 06:52:57;;;;;;;15.00;11.77;;;1.80;1.00;;;;;;6311719;28;20717;-56
2022/03/05 06:56:01;;;;;;;14.00;10.93;;;1.50;1.00;;;;;;6307103;28;20251;-56
2022/03/05 06:59:04;;;;;;;16.00;11.37;;;1.90;1.00;;;;;;6297930;28;20312;-56
2022/03/05 07:02:09;;;;;;;13.20;11.53;;;1.80;1.00;;;;;;6311513;28;20241;-56
2022/03/05 07:05:13;;;;;;;13.67;11.13;;;1.80;1.00;;;;;;6309409;28;20239;-56
2022/03/05 07:08:16;;;;;;;19.77;12.23;;;1.80;1.00;;;;;;6304157;28;20298;-56
2022/03/05 07:11:20;;;;;;;13.07;11.43;;;1.90;1.00;;;;;;6311054;28;20284;-57
2022/03/05 07:14:23;;;;;;;14.57;12.07;;;1.60;1.00;;;;;;6308766;28;20287;-56
2022/03/05 07:17:26;;;;;;;19.13;11.30;;;1.70;1.00;;;;;;6304648;28;20261;-56
2022/03/05 07:20:29;;;;;;;15.13;11.83;;;1.70;1.00;;;;;;6301632;28;20330;-56
2022/03/05 07:23:31;;;;;;;15.03;11.13;;;1.60;1.00;;;;;;6303022;28;20649;-56
2022/03/05 07:26:35;;;;;;;14.60;12.00;;;2.00;1.00;;;;;;6308372;28;20237;-55
2022/03/05 07:29:38;;;;;;;14.80;11.80;;;2.00;1.00;;;;;;6299477;28;20306;-56
2022/03/05 07:32:42;;;;;;;15.20;11.90;;;1.70;1.00;;;;;;6300320;28;20236;-56
2022/03/05 07:35:44;;;;;;;15.53;12.43;;;1.90;1.00;;;;;;6277149;28;20266;-57
2022/03/05 07:38:47;;;;;;;15.00;11.97;;;1.80;1.00;;;;;;6294867;28;20294;-57
2022/03/05 07:41:51;;;;;;;20.40;11.63;;;1.80;1.00;;;;;;6302304;28;20655;-56
2022/03/05 07:44:55;;;;;;;14.63;11.67;;;1.90;1.00;;;;;;6307886;28;20859;-57
2022/03/05 07:47:57;;;;;;;14.37;10.97;;;2.00;1.00;;;;;;6308032;28;20229;-56
2022/03/05 07:51:02;;;;;;;15.47;11.70;;;2.40;1.00;;;;;;6306452;28;20715;-56
2022/03/05 07:54:05;;;;;;;11.97;10.80;;;2.10;1.00;;;;;;6308335;28;20260;-55
2022/03/05 07:57:09;;;;;;;15.50;11.33;;;2.10;1.00;;;;;;6306507;28;20286;-56
2022/03/05 08:00:12;;;;;;;13.57;11.50;;;2.20;1.00;;;;;;6299755;28;20319;-56
2022/03/05 08:03:27;;;;;;;14.13;11.77;;;2.50;1.00;;;;;;6300047;28;20270;-56
2022/03/05 08:06:30;;;;;;;12.50;11.20;;;2.60;1.00;;;;;;6308037;28;20494;-56
2022/03/05 08:09:33;;;;;;;13.80;11.33;;;2.60;1.00;;;;;;6294499;28;20324;-56
2022/03/05 08:12:37;;;;;;;12.63;10.67;;;2.70;1.00;;;;;;6300090;28;20298;-56
2022/03/05 08:15:40;;;;;;;13.77;11.20;;;2.50;1.00;;;;;;6308847;28;20466;-56
2022/03/05 08:18:43;;;;;;;13.23;11.90;;;2.60;1.00;;;;;;6299827;28;20468;-57
2022/03/05 08:21:46;;;;;;;12.93;11.63;;;3.00;1.00;;;;;;6304648;28;20274;-56
2022/03/05 08:24:48;;;;;;;14.70;11.53;;;3.10;1.00;;;;;;6305362;28;20233;-56
2022/03/05 08:27:53;;;;;;;14.37;11.53;;;3.00;1.00;;;;;;6295864;28;20281;-56
2022/03/05 08:30:56;;;;;;;15.07;11.40;;;3.10;1.00;;;;;;6295227;28;20684;-56
2022/03/05 08:34:01;;;;;;;12.90;11.57;;;3.20;1.00;;;;;;6304140;28;20236;-57
2022/03/05 08:37:04;;;;;;;15.37;11.53;;;3.20;1.00;;;;;;6292271;28;20226;-57
2022/03/05 08:40:09;;;;;;;13.77;11.77;;;3.10;1.00;;;;;;6301522;28;20331;-56
2022/03/05 08:43:13;;;;;;;14.30;11.50;;;3.30;1.00;;;;;;6291934;28;20303;-56
2022/03/05 08:46:16;;;;;;;16.00;11.67;;;3.50;1.00;;;;;;6301573;28;20384;-56
2022/03/05 08:49:19;;;;;;;13.30;11.63;;;3.60;1.00;;;;;;6300206;28;20232;-58
2022/03/05 08:52:22;;;;;;;12.83;11.00;;;3.60;1.00;;;;;;6307426;28;20789;-57
2022/03/05 08:55:25;;;;;;;13.63;11.80;;;3.70;1.00;;;;;;6301551;28;20332;-57
2022/03/05 08:58:29;;;;;;;13.53;11.07;;;3.70;1.00;;;;;;6295835;28;20244;-57
2022/03/05 09:01:31;;;;;;;12.33;11.03;;;3.80;1.00;;;;;;6304172;28;20242;-57
2022/03/05 09:04:35;;;;;;;14.03;12.17;;;4.00;1.00;;;;;;6295429;28;20255;-57
2022/03/05 09:07:38;;;;;;;13.93;11.83;;;4.10;1.00;;;;;;6302171;28;20720;-58
2022/03/05 09:10:41;;;;;;;12.07;10.90;;;4.40;1.00;;;;;;6286901;28;20386;-57
2022/03/05 09:13:45;;;;;;;12.23;11.03;;;4.50;1.00;;;;;;6299053;28;20714;-58
2022/03/05 09:16:48;;;;;;;16.63;11.70;;;4.70;1.00;;;;;;6307178;28;20375;-58
2022/03/05 09:19:53;;;;;;;11.90;10.67;;;4.70;1.00;;;;;;6295779;28;20568;-57
2022/03/05 09:22:55;;;;;;;18.70;11.30;;;4.60;1.00;;;;;;6300613;28;20358;-57
2022/03/05 09:25:58;;;;;;;13.00;11.00;;;4.60;1.00;;;;;;6307894;28;20711;-57
2022/03/05 09:29:02;;;;;;;15.77;11.80;;;4.80;1.00;;;;;;6300478;28;20367;-57
2022/03/05 09:32:07;;;;;;;11.13;10.13;;;4.70;1.00;;;;;;6307326;28;20848;-57
2022/03/05 09:35:10;;;;;;;11.40;10.20;;;4.90;1.00;;;;;;6306604;28;20733;-58
2022/03/05 09:38:12;;;;;;;12.93;11.00;;;4.90;1.00;;;;;;6298809;28;20225;-58
2022/03/05 09:41:16;;;;;;;10.53;9.53;;;5.30;1.00;;;;;;6303498;28;20259;-57
2022/03/05 09:44:21;;;;;;;11.67;10.67;;;5.30;1.00;;;;;;6302781;28;20359;-57
2022/03/05 09:47:26;;;;;;;11.03;9.90;;;5.40;1.00;;;;;;6305959;28;20236;-57
2022/03/05 09:50:29;;;;;;;13.43;10.33;;;5.60;1.00;;;;;;6309074;28;20232;-57
2022/03/05 09:53:33;;;;;;;13.13;10.87;;;5.70;1.00;;;;;;6304672;28;20319;-57
2022/03/05 09:56:36;;;;;;;11.60;10.43;;;5.60;1.00;;;;;;6313098;28;20347;-57
2022/03/05 09:59:40;;;;;;;14.60;11.30;;;5.80;1.00;;;;;;6289658;28;20320;-57
2022/03/05 10:02:46;;;;;;;11.63;10.53;;;5.80;1.00;;;;;;6309967;28;20331;-57
2022/03/05 10:05:49;;;;;;;12.57;10.63;;;5.80;1.00;;;;;;6304961;28;20446;-57
2022/03/05 10:08:52;;;;;;;11.33;10.20;;;5.90;1.00;;;;;;6305045;28;20706;-57
2022/03/05 10:11:54;;;;;;;12.60;10.60;;;5.90;1.00;;;;;;6302351;28;20324;-56
2022/03/05 10:15:09;;;;;;;12.73;10.70;;;6.10;1.00;;;;;;6302890;28;20851;-60
2022/03/05 10:18:12;;;;;;;10.57;9.57;;;6.20;1.00;;;;;;6303379;28;20700;-57
2022/03/05 10:21:16;;;;;;;13.07;10.40;;;6.60;1.00;;;;;;6307588;28;20250;-57
2022/03/05 10:24:19;;;;;;;11.47;9.77;;;6.50;1.00;;;;;;6310736;28;20664;-57
2022/03/05 10:27:31;;;;;;;11.53;10.33;;;6.60;1.00;;;;;;6307038;28;20222;-58
2022/03/05 10:30:37;;;;;;;10.87;9.80;;;6.80;1.00;;;;;;6302048;28;20750;-57
2022/03/05 10:33:42;;;;;;;10.60;9.60;;;7.00;1.00;;;;;;6311465;28;20262;-57
2022/03/05 10:36:58;;;;;;;10.30;9.30;;;7.20;1.00;;;;;;6309119;28;20733;-56
2022/03/05 10:40:02;;;;;;;11.23;10.13;;;7.30;1.00;;;;;;6303009;28;20312;-57
2022/03/05 10:43:07;;;;;;;10.33;9.43;;;7.30;1.00;;;;;;6297718;28;20315;-58
2022/03/05 10:46:12;;;;;;;12.00;10.03;;;7.50;1.00;;;;;;6306062;28;20275;-57
2022/03/05 10:49:17;;;;;;;11.27;10.27;;;7.60;1.00;;;;;;6302825;28;20228;-57
2022/03/05 10:52:20;;;;;;;11.57;10.47;;;7.80;1.00;;;;;;6309909;28;20716;-58
2022/03/05 10:55:24;;;;;;;10.13;9.20;;;7.80;1.00;;;;;;6303881;28;20317;-57
2022/03/05 10:58:27;;;;;;;11.30;9.40;;;7.90;1.00;;;;;;6302120;28;20765;-56
2022/03/05 11:01:32;;;;;;;10.77;9.77;;;7.70;1.00;;;;;;6310326;28;20959;-56
2022/03/05 11:04:37;;;;;;;11.03;9.77;;;7.40;1.00;;;;;;6300940;28;20241;-58
2022/03/05 11:07:40;;;;;;;10.17;9.37;;;7.00;1.00;;;;;;6306554;28;20634;-57
2022/03/05 11:10:43;;;;;;;10.47;9.37;;;6.70;1.00;;;;;;6309060;28;20317;-57
2022/03/05 11:13:46;;;;;;;10.17;9.33;;;6.40;1.00;;;;;;6297130;28;20377;-58
2022/03/05 11:16:51;;;;;;;10.40;9.50;;;6.30;1.00;;;;;;6289507;28;20805;-58
2022/03/05 11:19:54;;;;;;;10.53;9.60;;;6.20;1.00;;;;;;6304632;28;20243;-57
2022/03/05 11:22:57;;;;;;;10.27;9.37;;;6.30;1.00;;;;;;6310025;28;20425;-58
2022/03/05 11:26:01;;;;;;;11.10;9.90;;;6.20;1.00;;;;;;6310527;28;20783;-57
2022/03/05 11:29:04;;;;;;;10.03;9.13;;;6.20;1.00;;;;;;6294440;28;20593;-57
2022/03/05 11:32:13;;;;;;;10.20;9.20;;;6.30;1.00;;;;;;6303038;28;20225;-58
2022/03/05 11:35:21;;;;;;;10.37;9.50;;;6.30;1.00;;;;;;6302880;28;20320;-57
2022/03/05 11:38:32;;;;;;;11.30;10.30;;;6.50;1.00;;;;;;6288341;28;20245;-59
2022/03/05 11:41:48;;;;;;;10.63;9.63;;;6.70;1.00;;;;;;6306410;28;20239;-56
2022/03/05 11:44:51;;;;;;;9.90;9.10;;;7.10;1.00;;;;;;6307802;28;20293;-57
2022/03/05 11:48:28;;;;;;;10.00;8.90;;;7.40;1.00;;;;;;6298444;28;20363;-62
2022/03/05 11:51:31;;;;;;;9.50;8.70;;;7.80;1.00;;;;;;6309041;28;20685;-57
2022/03/05 11:54:34;;;;;;;9.00;8.30;;;8.30;1.00;;;;;;6306684;28;20717;-58
2022/03/05 11:57:43;;;;;;;8.83;8.23;;;8.20;1.00;;;;;;6303429;28;20408;-58
2022/03/05 12:00:49;;;;;;;9.00;8.20;;;8.00;1.00;;;;;;6291231;28;20489;-57
2022/03/05 12:03:53;;;;;;;9.40;8.60;;;7.80;1.00;;;;;;6307114;28;20235;-61
2022/03/05 12:07:01;;;;;;;8.60;8.00;;;7.60;1.00;;;;;;6307979;28;20327;-58
2022/03/05 12:10:12;;;;;;;8.83;8.13;;;7.30;1.00;;;;;;6299874;28;20554;-57
2022/03/05 12:13:16;;;;;;;7.80;7.20;;;7.20;1.00;;;;;;6308545;28;20370;-58
2022/03/05 12:16:21;;;;;;;8.27;7.67;;;7.00;1.00;;;;;;6295559;28;20320;-58
2022/03/05 12:19:26;;;;;;;7.43;7.03;;;6.90;1.00;;;;;;6298814;28;20585;-57
2022/03/05 12:22:29;;;;;;;8.87;8.17;;;7.10;1.00;;;;;;6302690;28;20287;-57
2022/03/05 12:25:33;;;;;;;7.90;7.20;;;7.20;1.00;;;;;;6303542;28;20275;-57
2022/03/05 12:28:42;;;;;;;7.63;7.07;;;7.10;1.00;;;;;;6299188;28;20232;-58
2022/03/05 12:31:46;;;;;;;7.60;7.10;;;7.40;1.00;;;;;;6297510;28;20233;-59
2022/03/05 12:34:50;;;;;;;8.87;7.57;;;7.70;1.00;;;;;;6306074;28;20476;-58
2022/03/05 12:37:53;;;;;;;7.53;7.13;;;8.00;1.00;;;;;;6304454;28;20250;-58
2022/03/05 12:40:56;;;;;;;7.50;6.97;;;8.20;1.00;;;;;;6306423;28;20374;-57
2022/03/05 12:43:59;;;;;;;6.83;6.33;;;8.30;1.00;;;;;;6307624;28;20703;-58
2022/03/05 12:47:02;;;;;;;7.70;7.20;;;8.50;1.00;;;;;;6301453;28;20513;-57
2022/03/05 12:50:28;;;;;;;7.33;6.83;;;8.50;1.00;;;;;;6304189;28;20773;-58
2022/03/05 12:53:34;;;;;;;7.40;6.90;;;8.40;1.00;;;;;;6302711;28;20615;-58
2022/03/05 12:56:37;;;;;;;8.10;7.40;;;8.20;1.00;;;;;;6303261;28;20240;-58
2022/03/05 12:59:41;;;;;;;6.90;6.50;;;8.00;1.00;;;;;;6297760;28;20298;-57
2022/03/05 13:02:44;;;;;;;7.47;6.70;;;7.70;1.00;;;;;;6302110;28;20333;-58
2022/03/05 13:05:51;;;;;;;7.10;6.60;;;7.60;1.00;;;;;;6306104;28;20271;-59
2022/03/05 13:08:56;;;;;;;6.73;6.47;;;7.50;1.00;;;;;;6291779;28;20264;-58
2022/03/05 13:12:19;;;;;;;6.70;6.30;;;7.40;1.00;;;;;;6301111;28;20289;-62
2022/03/05 13:15:25;;;;;;;6.73;6.33;;;7.50;1.00;;;;;;6300741;28;20324;-57
2022/03/05 13:18:28;;;;;;;6.47;6.07;;;7.50;1.00;;;;;;6303720;28;20693;-59
2022/03/05 13:21:38;;;;;;;6.50;6.00;;;7.40;1.00;;;;;;6305701;28;20581;-58
2022/03/05 13:24:50;;;;;;;7.10;6.60;;;7.30;1.00;;;;;;6308595;28;20319;-59
2022/03/05 13:27:53;;;;;;;5.53;5.30;;;7.10;1.00;;;;;;6309275;28;20314;-58
2022/03/05 13:30:59;;;;;;;5.60;5.30;;;7.00;1.00;;;;;;6301928;28;20851;-58
2022/03/05 13:34:02;;;;;;;6.67;6.17;;;6.70;1.00;;;;;;6312264;28;20315;-58
2022/03/05 13:37:10;;;;;;;5.93;5.63;;;6.70;1.00;;;;;;6306771;28;20315;-57
2022/03/05 13:40:15;;;;;;;6.17;5.87;;;6.80;1.00;;;;;;6308055;28;20238;-58
2022/03/05 13:43:22;;;;;;;6.20;5.80;;;6.60;1.00;;;;;;6306472;28;20564;-58
2022/03/05 13:46:27;;;;;;;6.00;5.60;;;6.60;1.00;;;;;;6303242;28;20363;-57
2022/03/05 13:49:30;;;;;;;5.73;5.40;;;6.60;1.00;;;;;;6299062;28;20240;-57
2022/03/05 13:52:34;;;;;;;9.00;5.60;;;6.60;1.00;;;;;;6305634;28;20692;-58
2022/03/05 13:55:37;;;;;;;5.83;5.40;;;6.70;1.00;;;;;;6308513;28;20236;-58
2022/03/05 13:58:41;;;;;;;5.43;5.23;;;6.60;1.00;;;;;;6302934;28;20228;-58
2022/03/05 14:01:45;;;;;;;5.83;5.33;;;6.70;1.00;;;;;;6301270;28;20256;-58
2022/03/05 14:04:57;;;;;;;5.77;5.47;;;6.70;1.00;;;;;;6309911;28;20635;-58
2022/03/05 14:08:03;;;;;;;5.63;5.23;;;6.60;1.00;;;;;;6300393;28;20260;-58
2022/03/05 14:11:06;;;;;;;4.87;4.67;;;6.50;1.00;;;;;;6305423;28;20642;-58
2022/03/05 14:14:09;;;;;;;5.27;4.87;;;6.50;1.00;;;;;;6308566;28;20239;-57
2022/03/05 14:17:24;;;;;;;5.27;4.87;;;6.30;1.00;;;;;;6309555;28;20938;-57
2022/03/05 14:20:28;;;;;;;5.60;5.13;;;6.30;1.00;;;;;;6305326;28;20432;-57
2022/03/05 14:23:33;;;;;;;5.70;5.43;;;6.30;1.00;;;;;;6306563;28;20255;-57
2022/03/05 14:26:36;;;;;;;5.80;5.40;;;6.20;1.00;;;;;;6307888;28;20236;-57
2022/03/05 14:29:39;;;;;;;5.93;5.37;;;6.00;1.00;;;;;;6297197;28;20363;-58
2022/03/05 14:32:42;;;;;;;5.17;4.87;;;6.00;1.00;;;;;;6288843;28;20724;-57
2022/03/05 14:35:46;;;;;;;5.40;5.10;;;5.80;1.00;;;;;;6308426;28;20577;-56
2022/03/05 14:38:50;;;;;;;5.10;4.80;;;5.80;1.00;;;;;;6305846;28;20254;-58
2022/03/05 14:41:53;;;;;;;5.40;5.00;;;5.90;1.00;;;;;;6301330;28;20771;-58
2022/03/05 14:44:55;;;;;;;5.67;5.23;;;5.90;1.00;;;;;;6307508;28;20917;-56
2022/03/05 14:47:58;;;;;;;4.90;4.60;;;5.70;1.00;;;;;;6308927;28;20229;-57
2022/03/05 14:51:01;;;;;;;5.40;4.80;;;5.80;1.00;;;;;;6307694;28;20333;-57
2022/03/05 14:54:06;;;;;;;5.40;5.07;;;5.80;1.00;;;;;;6302865;28;20661;-58
2022/03/05 14:57:09;;;;;;;5.63;5.33;;;5.70;1.00;;;;;;6306718;28;20228;-57
2022/03/05 15:00:14;;;;;;;6.43;5.80;;;5.70;1.00;;;;;;6295694;28;20853;-58
2022/03/05 15:03:17;;;;;;;5.97;5.63;;;5.80;1.00;;;;;;6302736;28;20957;-58
2022/03/05 15:06:21;;;;;;;6.40;5.87;;;5.60;1.00;;;;;;6303960;28;20239;-58
2022/03/05 15:09:25;;;;;;;5.70;5.40;;;5.60;1.00;;;;;;6300258;28;20748;-58
2022/03/05 15:12:28;;;;;;;5.30;5.00;;;5.50;1.00;;;;;;6308408;28;20240;-58
2022/03/05 15:15:31;;;;;;;4.97;4.70;;;5.90;1.00;;;;;;6297994;28;20377;-57
2022/03/05 15:18:33;;;;;;;5.97;5.57;;;5.90;1.00;;;;;;6295881;28;20325;-59
2022/03/05 15:21:37;;;;;;;5.00;4.80;;;5.70;1.00;;;;;;6296395;28;20334;-57
2022/03/05 15:24:41;;;;;;;6.43;5.97;;;5.80;1.00;;;;;;6309841;28;20289;-57
2022/03/05 15:27:44;;;;;;;6.50;5.93;;;5.80;1.00;;;;;;6296502;28;20323;-58
2022/03/05 15:30:47;;;;;;;6.43;5.97;;;5.70;1.00;;;;;;6298899;28;20286;-57
2022/03/05 15:33:50;;;;;;;6.27;5.93;;;5.70;1.00;;;;;;6307772;28;20442;-58
2022/03/05 15:36:55;;;;;;;6.17;5.87;;;5.80;1.00;;;;;;6308061;28;20290;-57
2022/03/05 15:39:59;;;;;;;6.20;6.00;;;5.60;1.00;;;;;;6301416;28;20752;-57
2022/03/05 15:43:02;;;;;;;6.20;5.80;;;5.60;1.00;;;;;;6307640;28;20269;-58
2022/03/05 15:46:08;;;;;;;5.97;5.77;;;5.50;1.00;;;;;;6306411;28;20232;-57
2022/03/05 15:49:12;;;;;;;6.90;6.30;;;5.30;1.00;;;;;;6299006;28;20717;-56
2022/03/05 15:52:15;;;;;;;5.10;5.00;;;5.20;1.00;;;;;;6307731;28;20229;-56
2022/03/05 15:55:19;;;;;;;5.43;5.10;;;5.10;1.00;;;;;;6303703;28;20260;-58
2022/03/05 15:58:24;;;;;;;5.40;5.10;;;4.90;1.00;;;;;;6305527;28;20243;-57
2022/03/05 16:01:27;;;;;;;4.97;4.73;;;5.00;1.00;;;;;;6305346;28;20224;-57
2022/03/05 16:04:30;;;;;;;5.77;5.47;;;4.80;1.00;;;;;;6306169;28;20732;-58
2022/03/05 16:07:33;;;;;;;5.63;5.23;;;4.80;1.00;;;;;;6306109;28;20300;-57
2022/03/05 16:10:37;;;;;;;4.93;4.60;;;4.80;1.00;;;;;;6304513;28;20228;-57